Time;durP1;ratioP1;P1;durP2;ratioP2;P2;SDS_P1;SDS_P2;PMS_P1;PMS_P2;Temp;Humidity;BMP_temperature;BMP_pressure;BME280_temperature;BME280_humidity;BME280_pressure;Samples;Min_cycle;Max_cycle;Signal;HPM_P1;HPM_P2
2021/08/03 00:00:13;;;;;;;7.40;4.50;;;13.60;99.90;;;;;;5031902;28;20472;-69
2021/08/03 00:02:45;;;;;;;6.70;3.67;;;13.70;99.90;;;;;;5032058;28;20480;-70
2021/08/03 00:05:20;;;;;;;4.53;3.57;;;13.70;99.90;;;;;;5032398;28;20455;-70
2021/08/03 00:07:48;;;;;;;4.93;3.40;;;13.80;99.90;;;;;;5031948;28;20448;-69
2021/08/03 00:10:24;;;;;;;4.50;3.90;;;13.70;99.90;;;;;;5031973;28;20473;-69
2021/08/03 00:12:51;;;;;;;5.23;3.67;;;13.80;99.90;;;;;;5032207;28;20440;-69
2021/08/03 00:15:22;;;;;;;6.80;3.50;;;13.80;99.90;;;;;;5031853;28;20517;-70
2021/08/03 00:17:53;;;;;;;5.40;3.70;;;13.90;99.90;;;;;;5031874;28;20451;-69
2021/08/03 00:20:21;;;;;;;5.70;4.10;;;14.00;99.90;;;;;;5031403;28;20473;-70
2021/08/03 00:22:50;;;;;;;6.10;4.53;;;14.10;99.90;;;;;;5032111;28;20445;-70
2021/08/03 00:25:19;;;;;;;4.90;3.90;;;14.10;99.90;;;;;;5031730;28;20464;-69
2021/08/03 00:27:47;;;;;;;6.33;4.23;;;14.20;99.90;;;;;;5031898;28;20453;-71
2021/08/03 00:30:14;;;;;;;7.13;4.10;;;14.20;99.90;;;;;;5031506;28;20998;-70
2021/08/03 00:32:41;;;;;;;6.37;4.00;;;14.20;99.90;;;;;;5031472;28;20821;-69
2021/08/03 00:35:09;;;;;;;5.13;4.10;;;14.20;99.90;;;;;;5031666;28;20489;-70
2021/08/03 00:37:36;;;;;;;5.63;4.00;;;14.20;99.90;;;;;;5031756;28;20457;-72
2021/08/03 00:40:05;;;;;;;5.20;4.37;;;14.20;99.90;;;;;;5031344;28;20475;-70
2021/08/03 00:42:34;;;;;;;5.47;4.13;;;14.30;99.90;;;;;;5031058;28;20487;-69
2021/08/03 00:45:02;;;;;;;5.10;3.53;;;14.30;99.90;;;;;;5031469;28;21170;-69
2021/08/03 00:47:28;;;;;;;5.53;4.30;;;14.20;99.90;;;;;;5032000;28;20484;-70
2021/08/03 00:49:55;;;;;;;5.10;3.50;;;14.30;99.90;;;;;;5031349;28;20908;-70
2021/08/03 00:52:22;;;;;;;3.90;2.80;;;14.30;99.90;;;;;;5031901;28;20457;-70
2021/08/03 00:54:49;;;;;;;3.97;3.20;;;14.40;99.90;;;;;;5031588;28;20468;-70
2021/08/03 00:57:16;;;;;;;4.90;2.80;;;14.40;99.90;;;;;;5031191;28;20448;-70
2021/08/03 00:59:45;;;;;;;5.17;3.00;;;14.50;99.90;;;;;;5031455;28;20501;-70
2021/08/03 01:02:12;;;;;;;4.33;3.20;;;14.40;99.90;;;;;;5032140;28;20831;-71
2021/08/03 01:04:38;;;;;;;3.73;2.63;;;14.50;99.90;;;;;;5031992;28;20448;-70
2021/08/03 01:07:12;;;;;;;4.30;3.17;;;14.50;99.90;;;;;;5031398;28;20455;-70
2021/08/03 01:09:47;;;;;;;6.67;3.30;;;14.50;99.90;;;;;;5030862;28;20543;-69
2021/08/03 01:12:30;;;;;;;4.77;3.23;;;14.50;99.90;;;;;;5031432;28;20448;-70
2021/08/03 01:15:02;;;;;;;4.70;3.57;;;14.50;99.90;;;;;;5031117;28;20869;-70
2021/08/03 01:17:38;;;;;;;5.83;4.13;;;14.60;99.90;;;;;;5031098;28;20445;-70
2021/08/03 01:20:12;;;;;;;3.60;2.70;;;14.70;99.90;;;;;;5031016;28;20555;-70
2021/08/03 01:23:00;;;;;;;4.23;3.60;;;14.70;99.90;;;;;;5031940;28;20534;-70
2021/08/03 01:25:40;;;;;;;4.90;2.90;;;14.70;99.90;;;;;;5028881;28;20457;-70
2021/08/03 01:28:24;;;;;;;3.77;2.60;;;14.70;99.90;;;;;;5030702;28;20452;-70
2021/08/03 01:30:55;;;;;;;3.73;2.80;;;14.80;99.90;;;;;;5030505;28;20433;-70
2021/08/03 01:33:26;;;;;;;4.13;2.50;;;14.80;99.90;;;;;;5031000;28;20452;-70
2021/08/03 01:35:57;;;;;;;6.80;2.73;;;14.80;99.90;;;;;;5030590;28;20489;-70
2021/08/03 01:38:26;;;;;;;4.03;2.40;;;14.80;99.90;;;;;;5030729;28;20457;-70
2021/08/03 01:40:57;;;;;;;4.00;2.40;;;14.90;99.90;;;;;;5030127;28;20449;-69
2021/08/03 01:43:26;;;;;;;4.30;2.90;;;14.80;99.90;;;;;;5030910;28;20528;-71
2021/08/03 01:45:55;;;;;;;4.20;2.87;;;14.80;99.90;;;;;;5031032;28;20531;-69
2021/08/03 01:48:24;;;;;;;4.03;2.57;;;14.80;99.90;;;;;;5030716;28;20523;-70
2021/08/03 01:50:53;;;;;;;6.10;3.13;;;14.80;99.90;;;;;;5030302;28;20480;-68
2021/08/03 01:53:21;;;;;;;4.10;3.23;;;14.70;99.90;;;;;;5030611;28;20540;-70
2021/08/03 01:55:49;;;;;;;4.70;3.33;;;14.60;99.90;;;;;;5030692;28;20481;-68
2021/08/03 01:58:17;;;;;;;3.57;3.07;;;14.50;99.90;;;;;;5030719;28;20449;-69
2021/08/03 02:00:47;;;;;;;4.30;2.90;;;14.50;99.90;;;;;;5030326;28;20518;-69
2021/08/03 02:03:15;;;;;;;3.97;3.23;;;14.50;99.90;;;;;;5030680;28;20456;-70
2021/08/03 02:05:44;;;;;;;5.30;3.17;;;14.40;99.90;;;;;;5030553;28;20971;-69
2021/08/03 02:08:11;;;;;;;5.00;3.50;;;14.30;99.90;;;;;;5030913;28;21323;-69
2021/08/03 02:10:40;;;;;;;4.77;2.90;;;14.20;99.90;;;;;;5034444;28;20521;-70
2021/08/03 02:13:07;;;;;;;4.33;3.10;;;14.20;99.90;;;;;;5039320;28;20483;-70
2021/08/03 02:15:34;;;;;;;5.50;2.70;;;14.20;99.90;;;;;;5039022;28;20571;-70
2021/08/03 02:18:04;;;;;;;5.03;3.20;;;14.00;99.90;;;;;;5038782;28;21135;-69
2021/08/03 02:20:31;;;;;;;4.40;3.40;;;14.00;99.90;;;;;;5033908;28;20460;-69
2021/08/03 02:22:58;;;;;;;4.87;3.10;;;14.00;99.90;;;;;;5034629;28;20892;-70
2021/08/03 02:25:26;;;;;;;3.90;2.73;;;14.00;99.90;;;;;;5034194;28;20461;-70
2021/08/03 02:27:55;;;;;;;4.47;2.97;;;13.90;99.90;;;;;;5034190;28;20452;-70
2021/08/03 02:30:22;;;;;;;3.70;2.50;;;13.90;99.90;;;;;;5033583;28;20472;-70
2021/08/03 02:32:55;;;;;;;3.83;2.83;;;13.80;99.90;;;;;;5034185;28;20455;-71
2021/08/03 02:35:27;;;;;;;3.90;3.33;;;13.80;99.90;;;;;;5033880;28;20491;-69
2021/08/03 02:37:59;;;;;;;3.97;3.00;;;13.80;99.90;;;;;;5033999;28;20499;-69
2021/08/03 02:40:27;;;;;;;4.63;2.60;;;13.70;99.90;;;;;;5033151;28;20479;-69
2021/08/03 02:42:55;;;;;;;3.53;2.53;;;13.70;99.90;;;;;;5033922;28;20447;-70
2021/08/03 02:45:23;;;;;;;3.50;2.90;;;13.80;99.90;;;;;;5033926;28;20452;-69
2021/08/03 02:47:54;;;;;;;5.30;2.63;;;13.90;99.90;;;;;;5033529;28;20440;-70
2021/08/03 02:50:23;;;;;;;3.63;3.27;;;14.00;99.90;;;;;;5033269;28;20519;-70
2021/08/03 02:52:54;;;;;;;3.40;2.50;;;14.00;99.90;;;;;;5034099;28;20468;-69
2021/08/03 02:55:24;;;;;;;3.70;2.60;;;14.10;99.90;;;;;;5033582;28;20491;-69
2021/08/03 02:57:56;;;;;;;3.57;3.00;;;14.10;99.90;;;;;;5033535;28;20441;-70
2021/08/03 03:00:23;;;;;;;4.70;2.60;;;14.20;99.90;;;;;;5033142;28;20471;-70
2021/08/03 03:02:51;;;;;;;3.83;2.40;;;14.20;99.90;;;;;;5033825;28;20444;-69
2021/08/03 03:05:24;;;;;;;5.63;2.77;;;14.20;99.90;;;;;;5033909;28;20444;-70
2021/08/03 03:07:57;;;;;;;7.97;2.70;;;14.20;99.90;;;;;;5033792;28;20459;-70
2021/08/03 03:10:27;;;;;;;4.70;2.30;;;14.30;99.90;;;;;;5033217;28;20483;-69
2021/08/03 03:12:58;;;;;;;4.20;2.37;;;14.30;99.90;;;;;;5033303;28;20459;-69
2021/08/03 03:15:27;;;;;;;3.90;2.27;;;14.40;99.90;;;;;;5033488;28;20481;-69
2021/08/03 03:17:54;;;;;;;2.90;1.73;;;14.40;99.90;;;;;;5033514;28;20532;-70
2021/08/03 03:20:22;;;;;;;3.40;2.20;;;14.40;99.90;;;;;;5032830;28;20468;-70
2021/08/03 03:22:54;;;;;;;4.37;2.40;;;14.40;99.90;;;;;;5033013;28;20444;-70
2021/08/03 03:25:26;;;;;;;3.10;2.13;;;14.40;99.90;;;;;;5032771;28;20460;-69
2021/08/03 03:27:57;;;;;;;3.30;2.27;;;14.40;99.90;;;;;;5033194;28;20459;-69
2021/08/03 03:30:25;;;;;;;4.50;2.40;;;14.30;99.90;;;;;;5032803;28;20550;-70
2021/08/03 03:32:53;;;;;;;3.17;2.20;;;14.20;99.90;;;;;;5032963;28;20458;-70
2021/08/03 03:35:21;;;;;;;3.73;2.30;;;14.20;99.90;;;;;;5032881;28;20491;-69
2021/08/03 03:37:50;;;;;;;3.93;2.43;;;14.10;99.90;;;;;;5032598;28;20457;-69
2021/08/03 03:40:21;;;;;;;3.57;2.50;;;14.10;99.90;;;;;;5032345;28;20563;-69
2021/08/03 03:42:49;;;;;;;4.60;2.30;;;14.10;99.90;;;;;;5032855;28;20452;-69
2021/08/03 03:45:17;;;;;;;4.43;3.03;;;13.90;99.90;;;;;;5032709;28;20448;-69
2021/08/03 03:47:54;;;;;;;3.50;2.50;;;13.80;99.90;;;;;;5032923;28;20479;-69
2021/08/03 03:50:23;;;;;;;5.80;2.90;;;13.70;99.90;;;;;;5032350;28;20548;-69
2021/08/03 03:52:56;;;;;;;4.33;3.20;;;13.70;99.90;;;;;;5032774;28;20440;-68
2021/08/03 03:55:24;;;;;;;4.17;2.80;;;13.60;99.90;;;;;;5032668;28;20473;-70
2021/08/03 03:57:51;;;;;;;4.30;2.47;;;13.60;99.90;;;;;;5032418;28;20484;-70
2021/08/03 04:00:20;;;;;;;3.53;2.80;;;13.60;99.90;;;;;;5032242;28;20465;-71
2021/08/03 04:02:51;;;;;;;4.90;2.80;;;13.60;99.90;;;;;;5032282;28;20450;-70
2021/08/03 04:05:19;;;;;;;3.43;2.80;;;13.60;99.90;;;;;;5032205;28;20441;-70
2021/08/03 04:07:50;;;;;;;4.33;2.60;;;13.60;99.90;;;;;;5032094;28;20532;-70
2021/08/03 04:10:19;;;;;;;4.23;3.20;;;13.60;99.90;;;;;;5031925;28;20910;-70
2021/08/03 04:12:48;;;;;;;3.50;2.80;;;13.60;99.90;;;;;;5032306;28;21024;-70
2021/08/03 04:15:16;;;;;;;6.50;3.87;;;13.60;99.90;;;;;;5032034;28;21097;-68
2021/08/03 04:17:42;;;;;;;4.37;3.20;;;13.60;99.90;;;;;;5032326;28;20452;-69
2021/08/03 04:20:11;;;;;;;5.37;3.10;;;13.60;99.90;;;;;;5031858;28;20868;-68
2021/08/03 04:22:38;;;;;;;3.70;2.90;;;13.60;99.90;;;;;;5032154;28;20445;-70
2021/08/03 04:25:05;;;;;;;3.27;2.70;;;13.70;99.90;;;;;;5031870;28;20836;-69
2021/08/03 04:27:32;;;;;;;4.80;3.20;;;13.70;99.90;;;;;;5031924;28;20528;-69
2021/08/03 04:30:01;;;;;;;4.17;3.53;;;13.80;99.90;;;;;;5031369;28;20465;-70
2021/08/03 04:32:28;;;;;;;4.23;2.93;;;13.80;99.90;;;;;;5032179;28;20496;-71
2021/08/03 04:34:55;;;;;;;3.50;2.60;;;13.90;99.90;;;;;;5032524;28;20453;-71
2021/08/03 04:37:22;;;;;;;3.27;2.40;;;14.00;99.90;;;;;;5032931;28;20476;-70
2021/08/03 04:39:49;;;;;;;3.33;2.33;;;14.00;99.90;;;;;;5033195;28;20473;-70
2021/08/03 04:42:16;;;;;;;3.53;2.40;;;14.10;99.90;;;;;;5031617;28;20447;-70
2021/08/03 04:44:42;;;;;;;3.93;2.67;;;14.10;99.90;;;;;;5031622;28;20453;-70
2021/08/03 04:47:11;;;;;;;3.77;2.60;;;14.10;99.90;;;;;;5032251;28;20775;-70
2021/08/03 04:49:37;;;;;;;3.07;2.33;;;14.20;99.90;;;;;;5031464;28;20496;-69
2021/08/03 04:52:05;;;;;;;3.60;2.83;;;14.20;99.90;;;;;;5031568;28;20455;-70
2021/08/03 04:54:32;;;;;;;4.40;2.73;;;14.20;99.90;;;;;;5031351;28;20449;-70
2021/08/03 04:56:59;;;;;;;3.70;2.60;;;14.30;99.90;;;;;;5031384;28;20491;-69
2021/08/03 04:59:26;;;;;;;3.40;2.80;;;14.30;99.90;;;;;;5031203;28;20586;-69
2021/08/03 05:01:53;;;;;;;3.90;2.50;;;14.40;99.90;;;;;;5031430;28;20449;-70
2021/08/03 05:04:22;;;;;;;3.83;2.23;;;14.50;99.90;;;;;;5031276;28;20865;-70
2021/08/03 05:06:48;;;;;;;4.37;2.80;;;14.60;99.90;;;;;;5030996;28;20540;-70
2021/08/03 05:09:15;;;;;;;3.80;2.60;;;14.60;99.90;;;;;;5030840;28;20475;-70
2021/08/03 05:11:42;;;;;;;3.57;2.63;;;14.70;99.90;;;;;;5031324;28;20535;-69
2021/08/03 05:14:09;;;;;;;3.50;2.47;;;14.80;99.90;;;;;;5031385;28;20467;-69
2021/08/03 05:16:36;;;;;;;3.33;2.47;;;14.90;99.90;;;;;;5031110;28;20918;-68
2021/08/03 05:19:03;;;;;;;5.70;2.60;;;15.00;99.90;;;;;;5031063;28;20554;-68
2021/08/03 05:21:31;;;;;;;4.60;2.30;;;15.00;99.90;;;;;;5031245;28;20820;-68
2021/08/03 05:23:58;;;;;;;4.83;2.90;;;15.10;99.90;;;;;;5030529;28;20455;-69
2021/08/03 05:26:24;;;;;;;4.03;2.60;;;15.20;99.90;;;;;;5030709;28;20913;-69
2021/08/03 05:29:04;;;;;;;3.63;2.60;;;15.30;99.90;;;;;;5030984;28;20917;-70
2021/08/03 05:31:31;;;;;;;3.77;2.80;;;15.30;99.90;;;;;;5030431;28;20457;-69
2021/08/03 05:34:00;;;;;;;5.30;2.63;;;15.40;99.90;;;;;;5030282;28;20445;-70
2021/08/03 05:36:27;;;;;;;8.20;2.50;;;15.50;99.90;;;;;;5029987;28;21002;-69
2021/08/03 05:38:55;;;;;;;4.90;2.80;;;15.50;99.90;;;;;;5030348;28;20507;-69
2021/08/03 05:41:22;;;;;;;5.10;2.20;;;15.50;99.90;;;;;;5030219;28;21114;-69
2021/08/03 05:43:48;;;;;;;5.53;2.80;;;15.50;99.90;;;;;;5030072;28;20528;-69
2021/08/03 05:46:16;;;;;;;4.33;2.60;;;15.50;99.90;;;;;;5030276;28;20441;-70
2021/08/03 05:48:42;;;;;;;3.53;2.80;;;15.60;99.90;;;;;;5030095;28;20468;-70
2021/08/03 05:51:09;;;;;;;4.80;2.73;;;15.60;99.90;;;;;;5029927;28;20547;-70
2021/08/03 05:53:36;;;;;;;4.30;2.87;;;15.70;99.90;;;;;;5030421;28;20513;-70
2021/08/03 05:56:05;;;;;;;3.70;3.00;;;15.70;99.90;;;;;;5030093;28;20473;-69
2021/08/03 05:58:32;;;;;;;23.37;5.13;;;15.80;99.90;;;;;;5029819;28;21178;-70
2021/08/03 06:00:59;;;;;;;4.70;2.93;;;15.80;99.90;;;;;;5029776;28;20441;-70
2021/08/03 06:03:25;;;;;;;3.80;2.43;;;15.80;99.90;;;;;;5029905;28;20449;-70
2021/08/03 06:05:52;;;;;;;4.20;2.77;;;15.90;99.90;;;;;;5030361;28;20453;-70
2021/08/03 06:08:25;;;;;;;5.93;2.50;;;15.90;99.90;;;;;;5030154;28;20451;-70
2021/08/03 06:10:54;;;;;;;3.53;2.30;;;15.90;99.90;;;;;;5029473;28;20451;-70
2021/08/03 06:13:26;;;;;;;3.70;2.53;;;16.10;99.90;;;;;;5029958;28;20664;-70
2021/08/03 06:15:53;;;;;;;4.23;2.53;;;16.20;99.90;;;;;;5030136;28;20950;-70
2021/08/03 06:18:28;;;;;;;3.70;2.10;;;16.40;99.90;;;;;;5030043;28;20551;-69
2021/08/03 06:20:56;;;;;;;4.70;2.30;;;16.60;99.90;;;;;;5030026;28;20455;-70
2021/08/03 06:23:24;;;;;;;4.70;2.23;;;16.80;99.90;;;;;;5029802;28;20997;-70
2021/08/03 06:25:52;;;;;;;4.50;2.40;;;16.90;99.90;;;;;;5029775;28;20460;-70
2021/08/03 06:28:23;;;;;;;3.57;2.40;;;16.90;99.90;;;;;;5029787;28;20448;-70
2021/08/03 06:30:50;;;;;;;3.50;2.00;;;16.90;99.90;;;;;;5029317;28;20480;-70
2021/08/03 06:33:18;;;;;;;4.17;2.67;;;16.90;99.90;;;;;;5029683;28;20444;-70
2021/08/03 06:35:45;;;;;;;3.30;2.47;;;17.00;99.90;;;;;;5029548;28;20476;-69
2021/08/03 06:38:12;;;;;;;6.53;3.00;;;17.00;99.90;;;;;;5029359;28;21151;-70
2021/08/03 06:40:45;;;;;;;3.70;3.03;;;17.20;99.90;;;;;;5028989;28;20449;-70
2021/08/03 06:43:17;;;;;;;3.10;2.20;;;17.40;99.90;;;;;;5029532;28;20449;-70
2021/08/03 06:45:48;;;;;;;3.90;2.57;;;17.50;99.90;;;;;;5029571;28;20447;-69
2021/08/03 06:48:20;;;;;;;4.53;3.00;;;17.80;99.90;;;;;;5029565;28;20479;-69
2021/08/03 06:50:55;;;;;;;4.80;2.93;;;18.00;99.90;;;;;;5029154;28;20449;-70
2021/08/03 06:53:22;;;;;;;3.83;2.40;;;18.10;99.90;;;;;;5029238;28;21154;-70
2021/08/03 06:55:49;;;;;;;3.90;2.87;;;18.30;99.90;;;;;;5029446;28;20536;-70
2021/08/03 06:58:26;;;;;;;6.10;2.53;;;18.40;99.90;;;;;;5032345;28;20441;-69
2021/08/03 07:00:58;;;;;;;3.47;2.50;;;18.70;99.90;;;;;;5032808;28;20983;-69
2021/08/03 07:03:26;;;;;;;8.03;2.60;;;18.80;99.90;;;;;;5033050;28;20437;-70
2021/08/03 07:05:56;;;;;;;3.33;2.37;;;19.10;99.90;;;;;;5033727;28;20939;-70
2021/08/03 07:08:23;;;;;;;6.90;2.70;;;19.50;99.90;;;;;;5033205;28;20468;-70
2021/08/03 07:10:52;;;;;;;5.50;2.87;;;19.50;99.90;;;;;;5032480;28;21078;-70
2021/08/03 07:13:20;;;;;;;4.00;2.70;;;19.50;99.90;;;;;;5032910;28;20441;-70
2021/08/03 07:15:47;;;;;;;3.87;1.97;;;19.40;99.90;;;;;;5032891;28;20448;-70
2021/08/03 07:18:20;;;;;;;4.57;2.07;;;19.60;99.90;;;;;;5032450;28;20621;-70
2021/08/03 07:20:50;;;;;;;3.77;2.40;;;19.70;99.90;;;;;;5032699;28;20878;-70
2021/08/03 07:23:20;;;;;;;4.77;2.40;;;19.90;99.90;;;;;;5032902;28;20452;-70
2021/08/03 07:25:48;;;;;;;4.17;2.20;;;19.90;99.90;;;;;;5032790;28;20463;-70
2021/08/03 07:28:15;;;;;;;3.53;2.17;;;20.10;99.90;;;;;;5032511;28;20455;-69
2021/08/03 07:30:43;;;;;;;4.30;2.40;;;20.10;99.90;;;;;;5032229;28;20459;-70
2021/08/03 07:33:12;;;;;;;3.90;1.83;;;20.30;99.90;;;;;;5032372;28;20935;-70
2021/08/03 07:35:41;;;;;;;4.10;2.20;;;20.30;99.90;;;;;;5032514;28;20441;-70
2021/08/03 07:38:09;;;;;;;4.80;2.20;;;20.40;99.90;;;;;;5032381;28;20563;-70
2021/08/03 07:40:37;;;;;;;4.97;2.47;;;20.30;99.90;;;;;;5031941;28;20537;-70
2021/08/03 07:43:04;;;;;;;4.00;2.40;;;20.50;99.90;;;;;;5032212;28;20449;-70
2021/08/03 07:45:31;;;;;;;6.40;2.20;;;20.60;99.90;;;;;;5032404;28;20456;-70
2021/08/03 07:47:58;;;;;;;3.77;2.20;;;20.80;99.90;;;;;;5032126;28;20441;-69
2021/08/03 07:50:25;;;;;;;8.50;2.30;;;20.70;99.90;;;;;;5032440;28;21032;-70
2021/08/03 07:52:54;;;;;;;3.13;2.27;;;20.70;99.90;;;;;;5032874;28;20448;-70
2021/08/03 07:55:21;;;;;;;3.10;2.00;;;20.60;99.90;;;;;;5032743;28;20445;-69
2021/08/03 07:57:48;;;;;;;6.63;2.13;;;20.60;99.90;;;;;;5032329;28;20480;-70
2021/08/03 08:00:15;;;;;;;4.10;1.87;;;20.80;99.90;;;;;;5031613;28;20472;-70
2021/08/03 08:02:42;;;;;;;3.38;2.13;;;20.90;99.90;;;;;;5031275;28;20430;-71
2021/08/03 08:05:10;;;;;;;6.10;2.50;;;21.20;99.90;;;;;;5032211;28;20206;-70
2021/08/03 08:07:37;;;;;;;5.00;2.17;;;21.10;99.90;;;;;;5032053;28;20455;-68
2021/08/03 08:10:07;;;;;;;4.50;2.20;;;21.30;99.90;;;;;;5030482;28;20492;-69
2021/08/03 08:12:34;;;;;;;4.40;2.30;;;21.50;99.90;;;;;;5031734;28;20532;-69
2021/08/03 08:15:00;;;;;;;5.43;2.40;;;21.50;99.90;;;;;;5031578;28;20965;-69
2021/08/03 08:17:27;;;;;;;3.57;2.10;;;21.70;99.90;;;;;;5031570;28;20480;-69
2021/08/03 08:19:54;;;;;;;7.63;2.70;;;21.60;99.90;;;;;;5031483;28;20469;-69
2021/08/03 08:22:21;;;;;;;3.93;2.97;;;21.70;99.90;;;;;;5031630;28;20459;-69
2021/08/03 08:24:48;;;;;;;3.50;2.00;;;21.90;99.90;;;;;;5031290;28;20962;-69
2021/08/03 08:27:17;;;;;;;4.50;2.40;;;22.20;99.90;;;;;;5031786;28;20449;-69
2021/08/03 08:29:44;;;;;;;4.03;2.40;;;22.40;99.90;;;;;;5030840;28;20556;-69
2021/08/03 08:32:11;;;;;;;3.83;1.80;;;22.60;99.90;;;;;;5031418;28;20519;-69
2021/08/03 08:34:38;;;;;;;4.43;1.80;;;22.80;99.90;;;;;;5031378;28;20929;-69
2021/08/03 08:37:06;;;;;;;3.73;2.10;;;23.00;99.90;;;;;;5031353;28;20480;-69
2021/08/03 08:39:33;;;;;;;4.87;2.00;;;23.00;99.90;;;;;;5030493;28;20858;-69
2021/08/03 08:42:00;;;;;;;3.10;2.10;;;23.00;99.90;;;;;;5031215;28;20470;-68
2021/08/03 08:44:29;;;;;;;3.60;1.90;;;23.00;99.90;;;;;;5031017;28;20836;-69
2021/08/03 08:46:58;;;;;;;3.70;1.93;;;23.20;99.90;;;;;;5030915;28;20441;-69
2021/08/03 08:49:25;;;;;;;6.30;2.10;;;23.30;99.90;;;;;;5030485;28;20483;-69
2021/08/03 08:51:53;;;;;;;4.00;2.10;;;23.60;99.90;;;;;;5030759;28;20532;-68
2021/08/03 08:54:20;;;;;;;3.83;2.10;;;23.60;99.90;;;;;;5031109;28;20450;-69
2021/08/03 08:56:47;;;;;;;4.03;2.20;;;23.60;99.90;;;;;;5031054;28;20504;-69
2021/08/03 08:59:13;;;;;;;3.90;2.37;;;23.30;99.90;;;;;;5030395;28;20555;-69
2021/08/03 09:01:42;;;;;;;6.47;2.20;;;23.50;99.90;;;;;;5031054;28;20532;-70
2021/08/03 09:04:08;;;;;;;3.73;1.93;;;23.70;99.90;;;;;;5030625;28;20449;-70
2021/08/03 09:06:35;;;;;;;6.23;2.00;;;23.90;99.90;;;;;;5030372;28;20901;-70
2021/08/03 09:09:14;;;;;;;4.57;2.13;;;23.90;99.90;;;;;;5030088;28;20465;-70
2021/08/03 09:11:45;;;;;;;5.00;1.93;;;24.10;99.90;;;;;;5030552;28;20455;-70
2021/08/03 09:14:12;;;;;;;4.83;2.30;;;24.10;99.90;;;;;;5030507;28;20449;-71
2021/08/03 09:16:45;;;;;;;3.83;1.80;;;23.90;99.90;;;;;;5030099;28;20527;-70
2021/08/03 09:19:28;;;;;;;4.20;1.90;;;23.90;99.90;;;;;;5029679;28;20457;-71
2021/08/03 09:22:15;;;;;;;3.50;1.70;;;24.20;99.90;;;;;;5030436;28;20445;-70
2021/08/03 09:24:43;;;;;;;5.30;2.10;;;23.70;99.90;;;;;;5030225;28;20898;-70
2021/08/03 09:27:31;;;;;;;4.13;1.70;;;22.60;99.90;;;;;;5030370;28;20437;-70
2021/08/03 09:29:58;;;;;;;4.97;2.13;;;21.70;99.90;;;;;;5030214;28;20457;-69
2021/08/03 09:32:31;;;;;;;6.93;1.63;;;20.70;99.90;;;;;;5030772;28;20441;-69
2021/08/03 09:35:12;;;;;;;3.30;1.77;;;20.10;99.90;;;;;;5030499;28;20445;-69
2021/08/03 09:37:41;;;;;;;4.40;1.60;;;19.30;99.90;;;;;;5030287;28;20486;-69
2021/08/03 09:40:19;;;;;;;5.20;2.03;;;18.60;99.90;;;;;;5030115;28;20500;-70
2021/08/03 09:42:46;;;;;;;3.73;2.27;;;17.80;99.90;;;;;;5014371;28;20456;-69
2021/08/03 09:45:13;;;;;;;3.17;1.80;;;17.30;99.90;;;;;;5030192;28;20965;-68
2021/08/03 09:47:41;;;;;;;4.03;2.13;;;16.70;99.90;;;;;;5029903;28;20543;-68
2021/08/03 09:50:11;;;;;;;7.10;2.17;;;16.20;99.90;;;;;;5029628;28;20461;-69
2021/08/03 09:52:41;;;;;;;4.67;2.07;;;15.90;99.90;;;;;;5030458;28;20452;-70
2021/08/03 09:55:11;;;;;;;4.23;1.77;;;15.60;99.90;;;;;;5030319;28;20477;-70
2021/08/03 09:57:39;;;;;;;3.73;2.20;;;15.40;99.90;;;;;;5029979;28;20489;-70
2021/08/03 10:00:24;;;;;;;4.13;2.20;;;15.50;99.90;;;;;;5029871;28;21028;-70
2021/08/03 10:02:53;;;;;;;2.73;1.70;;;15.60;99.90;;;;;;5030145;28;20443;-69
2021/08/03 10:05:21;;;;;;;5.00;2.80;;;15.60;99.90;;;;;;5030276;28;20445;-70
2021/08/03 10:07:48;;;;;;;4.33;2.50;;;15.70;99.90;;;;;;5030055;28;20445;-69
2021/08/03 10:10:15;;;;;;;3.43;2.00;;;15.70;99.90;;;;;;5029439;28;21055;-68
2021/08/03 10:12:42;;;;;;;4.30;2.30;;;15.90;99.90;;;;;;5029762;28;20477;-69
2021/08/03 10:15:12;;;;;;;3.97;2.50;;;16.00;99.90;;;;;;5029515;28;20532;-69
2021/08/03 10:17:39;;;;;;;6.77;2.97;;;16.00;99.90;;;;;;5029773;28;20489;-69
2021/08/03 10:20:09;;;;;;;5.77;3.10;;;16.20;99.90;;;;;;5029361;28;20548;-69
2021/08/03 10:22:39;;;;;;;4.00;2.53;;;16.30;99.90;;;;;;5029692;28;20540;-69
2021/08/03 10:25:10;;;;;;;3.90;2.30;;;16.50;99.90;;;;;;5029383;28;20555;-70
2021/08/03 10:27:45;;;;;;;4.40;3.37;;;16.60;99.90;;;;;;5028636;28;20437;-69
2021/08/03 10:30:34;;;;;;;4.57;2.90;;;16.70;99.90;;;;;;5028505;28;20469;-69
2021/08/03 10:33:02;;;;;;;2.83;2.10;;;16.90;99.90;;;;;;5031076;28;20444;-69
2021/08/03 10:35:43;;;;;;;2.93;1.93;;;17.00;99.90;;;;;;5032457;28;20443;-69
2021/08/03 10:38:15;;;;;;;3.30;2.00;;;17.10;99.90;;;;;;5032019;28;20533;-69
2021/08/03 10:41:07;;;;;;;3.13;1.70;;;17.20;99.90;;;;;;5031837;28;20457;-70
2021/08/03 10:43:53;;;;;;;2.77;1.57;;;17.30;99.90;;;;;;5017588;28;20468;-69
2021/08/03 10:46:43;;;;;;;3.60;1.77;;;17.30;99.90;;;;;;5031859;28;20445;-69
2021/08/03 10:49:11;;;;;;;4.23;1.80;;;17.30;99.90;;;;;;5031679;28;20457;-70
2021/08/03 10:51:43;;;;;;;3.67;1.50;;;17.60;99.90;;;;;;5031874;28;20448;-70
2021/08/03 10:54:12;;;;;;;3.03;2.13;;;17.70;99.90;;;;;;5031927;28;20814;-70
2021/08/03 10:57:21;;;;;;;4.30;1.90;;;18.10;99.90;;;;;;5032072;28;20451;-70
2021/08/03 11:00:10;;;;;;;3.77;2.17;;;18.80;99.90;;;;;;5032068;28;20919;-70
2021/08/03 11:02:47;;;;;;;3.07;2.47;;;19.40;99.90;;;;;;5027224;28;20568;-69
2021/08/03 11:05:30;;;;;;;3.00;2.23;;;19.60;99.90;;;;;;5031597;28;20448;-70
2021/08/03 11:08:36;;;;;;;3.53;1.83;;;19.80;99.90;;;;;;5031534;28;20449;-70
2021/08/03 11:11:06;;;;;;;4.57;2.07;;;20.70;99.90;;;;;;5031400;28;20449;-70
2021/08/03 11:13:42;;;;;;;3.20;1.73;;;22.20;99.90;;;;;;5031456;28;20468;-70
2021/08/03 11:16:55;;;;;;;3.03;1.70;;;23.30;99.90;;;;;;5031741;28;20468;-70
2021/08/03 11:19:32;;;;;;;4.20;2.00;;;24.30;99.90;;;;;;5031319;28;20499;-70
2021/08/03 11:21:59;;;;;;;3.20;1.60;;;24.50;99.90;;;;;;5031739;28;20531;-70
2021/08/03 11:24:34;;;;;;;3.43;1.30;;;24.20;99.90;;;;;;4993447;28;1094249;-69
2021/08/03 11:27:02;;;;;;;3.60;1.43;;;24.20;99.90;;;;;;5032865;28;20439;-70
2021/08/03 11:29:35;;;;;;;3.50;1.87;;;24.20;99.90;;;;;;5032256;28;20461;-70
2021/08/03 11:32:03;;;;;;;4.40;1.37;;;24.40;99.90;;;;;;5032640;28;21049;-69
2021/08/03 11:34:32;;;;;;;3.40;1.77;;;24.50;99.90;;;;;;5032688;28;20528;-71
2021/08/03 11:37:03;;;;;;;2.60;1.40;;;24.50;99.90;;;;;;5032713;28;20536;-69
2021/08/03 11:39:32;;;;;;;2.87;1.60;;;25.00;99.90;;;;;;5032270;28;20488;-69
2021/08/03 11:41:59;;;;;;;4.50;1.83;;;25.30;99.90;;;;;;5032354;28;20451;-70
2021/08/03 11:44:27;;;;;;;3.40;1.80;;;25.00;99.90;;;;;;5032433;28;20543;-70
2021/08/03 11:46:58;;;;;;;2.77;1.90;;;24.80;99.90;;;;;;5032165;28;20445;-70
2021/08/03 11:49:30;;;;;;;5.63;1.90;;;24.80;99.90;;;;;;5031884;28;20526;-70
2021/08/03 11:52:20;;;;;;;3.57;1.70;;;24.80;99.90;;;;;;5033153;28;20548;-70
2021/08/03 11:54:49;;;;;;;2.97;1.90;;;24.80;99.90;;;;;;5030536;28;21163;-70
2021/08/03 11:57:28;;;;;;;3.70;1.43;;;24.70;99.90;;;;;;5032011;28;20781;-69
2021/08/03 12:00:07;;;;;;;5.20;1.90;;;24.70;99.90;;;;;;5031463;28;20557;-70
2021/08/03 12:02:34;;;;;;;2.87;1.77;;;24.50;99.90;;;;;;5032074;28;20486;-70
2021/08/03 12:05:07;;;;;;;2.57;1.70;;;24.50;99.90;;;;;;5031833;28;20882;-70
2021/08/03 12:07:34;;;;;;;4.40;1.63;;;24.60;99.90;;;;;;5031608;28;20441;-70
2021/08/03 12:10:01;;;;;;;2.70;1.33;;;24.70;99.90;;;;;;5031160;28;20460;-70
2021/08/03 12:12:28;;;;;;;3.13;1.80;;;24.70;99.90;;;;;;5031513;28;20484;-70
2021/08/03 12:15:04;;;;;;;3.47;1.80;;;24.80;99.90;;;;;;5031574;28;20536;-70
2021/08/03 12:17:31;;;;;;;2.50;1.43;;;24.70;99.90;;;;;;5031572;28;20528;-69
2021/08/03 12:20:03;;;;;;;3.00;1.77;;;25.10;99.90;;;;;;5031224;28;20465;-69
2021/08/03 12:22:32;;;;;;;3.20;1.80;;;25.20;99.90;;;;;;5031495;28;20540;-69
2021/08/03 12:25:01;;;;;;;3.33;1.70;;;25.30;99.90;;;;;;5031520;28;20863;-69
2021/08/03 12:27:37;;;;;;;3.17;2.00;;;25.70;99.90;;;;;;5031502;28;20464;-70
2021/08/03 12:30:06;;;;;;;3.23;2.20;;;25.80;99.90;;;;;;5031169;28;20468;-69
2021/08/03 12:32:37;;;;;;;6.50;2.60;;;25.80;99.90;;;;;;5031328;28;20898;-69
2021/08/03 12:35:11;;;;;;;4.83;2.57;;;25.30;99.90;;;;;;5031137;28;20453;-70
2021/08/03 12:37:38;;;;;;;3.60;2.13;;;24.90;99.90;;;;;;5031370;28;20484;-68
2021/08/03 12:40:06;;;;;;;2.80;1.97;;;24.40;99.90;;;;;;5030780;28;20536;-69
2021/08/03 12:42:48;;;;;;;4.13;2.13;;;23.90;99.90;;;;;;5030448;28;20540;-69
2021/08/03 12:45:16;;;;;;;3.47;1.70;;;23.40;99.90;;;;;;5031138;28;20449;-69
2021/08/03 12:47:54;;;;;;;3.43;1.70;;;23.20;99.90;;;;;;5030843;28;20444;-70
2021/08/03 12:50:23;;;;;;;2.20;1.13;;;24.40;99.90;;;;;;5030598;28;20479;-69
2021/08/03 12:52:53;;;;;;;3.20;1.47;;;24.70;99.90;;;;;;5031056;28;20552;-70
2021/08/03 12:55:30;;;;;;;2.30;1.30;;;24.00;99.90;;;;;;5030122;28;20449;-69
2021/08/03 12:57:58;;;;;;;2.60;1.23;;;23.10;99.90;;;;;;5030840;28;20458;-70
2021/08/03 13:00:34;;;;;;;2.73;1.60;;;23.10;99.90;;;;;;5030468;28;20476;-69